createdAt,value
2023-03-06T00:11:55.353Z,99586.19
2023-03-06T06:01:28.781Z,99555.38
2023-03-06T06:07:48.631Z,99554.91
2023-03-06T06:10:53.386Z,99558.75
2023-03-06T06:13:58.375Z,99567.88
2023-03-06T06:17:01.169Z,99574.22
2023-03-06T06:20:04.313Z,99571.16
2023-03-06T06:23:13.569Z,99569.94
2023-03-06T06:26:19.066Z,99572.19
2023-03-06T06:29:24.936Z,99576.53
2023-03-06T06:32:27.445Z,99572.63
2023-03-06T06:35:30.200Z,99577.28
2023-03-06T06:38:34.525Z,99576.78
2023-03-06T06:41:55.292Z,99583.84
2023-03-06T06:45:03.694Z,99581.94
2023-03-06T06:48:06.672Z,99585.75
2023-03-06T06:51:09.095Z,99587.22
2023-03-06T06:54:12.675Z,99588.25
2023-03-06T06:57:17.417Z,99589.53
2023-03-06T07:00:20.663Z,99587.41
2023-03-06T07:03:24.008Z,99593.94
2023-03-06T07:06:26.976Z,99588.66
2023-03-06T07:09:30.944Z,99597.63
2023-03-06T07:12:35.143Z,99594.34
2023-03-06T07:15:37.624Z,99594.41
2023-03-06T07:18:40.489Z,99602.84
2023-03-06T07:21:42.891Z,99595.88
2023-03-06T07:24:45.564Z,99601.44
2023-03-06T07:27:53.292Z,99595.56
2023-03-06T07:30:56.524Z,99600.53
2023-03-06T07:33:59.074Z,99598.88
2023-03-06T07:37:01.817Z,99599.09
2023-03-06T07:40:05.960Z,99607.66
2023-03-06T07:43:18.617Z,99604.03
2023-03-06T07:46:22.135Z,99611.69
2023-03-06T07:49:24.827Z,99611.03
2023-03-06T07:52:28.790Z,99607.88
2023-03-06T07:55:31.544Z,99605.31
2023-03-06T07:58:34.276Z,99612.19
2023-03-06T08:01:39.509Z,99616.19
2023-03-06T08:04:42.362Z,99617.91
2023-03-06T08:07:45.357Z,99617.03
2023-03-06T08:10:49.218Z,99620.63
2023-03-06T08:13:53.091Z,99622.53
2023-03-06T08:16:56.389Z,99620.69
2023-03-06T08:19:58.887Z,99619.50
2023-03-06T08:23:01.697Z,99622.63
2023-03-06T08:26:07.941Z,99623.53
2023-03-06T08:29:11.379Z,99629.00
2023-03-06T08:32:13.889Z,99632.12
2023-03-06T08:35:16.807Z,99637.41
2023-03-06T08:38:19.208Z,99628.31
2023-03-06T08:41:22.203Z,99624.78
2023-03-06T08:44:24.648Z,99619.41
2023-03-06T08:47:27.492Z,99630.78
2023-03-06T08:50:29.896Z,99637.41
2023-03-06T08:53:42.651Z,99632.03
2023-03-06T08:56:45.559Z,99634.31
2023-03-06T08:59:48.253Z,99638.25
2023-03-06T09:02:50.808Z,99640.50
2023-03-06T09:05:53.581Z,99647.66
2023-03-06T09:08:56.344Z,99647.22
2023-03-06T09:11:59.305Z,99639.47
2023-03-06T09:15:04.538Z,99649.19
2023-03-06T09:18:07.407Z,99657.69
2023-03-06T09:21:10.746Z,99653.66
2023-03-06T09:24:13.383Z,99649.19
2023-03-06T09:27:15.784Z,99640.16
2023-03-06T09:30:19.038Z,99648.44
2023-03-06T09:33:21.809Z,99643.03
2023-03-06T09:36:24.763Z,99647.56
2023-03-06T09:39:27.440Z,99651.53
2023-03-06T09:42:31.599Z,99650.53
2023-03-06T09:45:37.405Z,99646.84
2023-03-06T09:48:56.301Z,99646.81
2023-03-06T09:51:58.696Z,99654.25
2023-03-06T09:55:11.787Z,99656.84
2023-03-06T09:58:17.149Z,99659.56
2023-03-06T10:01:28.124Z,99649.22
2023-03-06T10:04:51.992Z,99644.72
2023-03-06T10:08:01.325Z,99645.75
2023-03-06T10:11:08.863Z,99639.94
2023-03-06T10:14:18.729Z,99646.97
2023-03-06T10:17:23.908Z,99658.31
2023-03-06T10:20:28.224Z,99653.81
2023-03-06T10:24:09.501Z,99642.75
2023-03-06T10:27:57.069Z,99652.41
2023-03-06T10:31:18.070Z,99634.59
2023-03-06T10:34:28.806Z,99638.91
2023-03-06T10:37:32.586Z,99633.34
2023-03-06T10:40:44.375Z,99631.00
2023-03-06T10:44:05.353Z,99638.25
2023-03-06T10:47:30.513Z,99634.75
2023-03-06T10:50:34.557Z,99631.31
2023-03-06T10:53:53.849Z,99623.88
2023-03-06T10:56:56.817Z,99621.34
2023-03-06T11:00:24.478Z,99623.59
2023-03-06T11:03:27.472Z,99623.09
2023-03-06T11:06:35.697Z,99624.34
2023-03-06T11:09:38.683Z,99621.88
2023-03-06T11:12:43.523Z,99616.22
2023-03-06T11:16:26.919Z,99612.94
2023-03-06T11:19:30.302Z,99598.59
2023-03-06T11:22:34.864Z,99600.59
2023-03-06T11:25:42.755Z,99599.31
2023-03-06T11:28:48.575Z,99585.59
2023-03-06T11:32:23.148Z,99587.19
2023-03-06T11:35:35.828Z,99588.13
2023-03-06T11:38:58.614Z,99577.06
2023-03-06T11:42:13.075Z,99579.03
2023-03-06T11:45:37.415Z,99575.63
2023-03-06T11:48:49.803Z,99573.22
2023-03-06T11:51:56.738Z,99567.78
2023-03-06T11:54:59.404Z,99569.66
2023-03-06T11:58:23.319Z,99557.19
2023-03-06T12:01:44.006Z,99553.50
2023-03-06T12:05:01.863Z,99556.00
2023-03-06T12:08:25.683Z,99542.88
2023-03-06T12:11:42.258Z,99538.94
2023-03-06T12:15:07.078Z,99536.09
2023-03-06T12:18:34.331Z,99532.69
2023-03-06T12:22:09.238Z,99523.69
2023-03-06T12:25:39.879Z,99509.12
2023-03-06T12:28:55.041Z,99502.50
2023-03-06T12:32:08.598Z,99499.22
2023-03-06T12:35:29.328Z,99497.56
2023-03-06T12:38:41.121Z,99490.94
2023-03-06T12:42:01.649Z,99484.41
2023-03-06T12:45:14.149Z,99484.00
2023-03-06T12:48:23.059Z,99483.84
2023-03-06T12:51:26.296Z,99474.66
2023-03-06T12:54:31.471Z,99474.56
2023-03-06T12:57:34.298Z,99472.19
2023-03-06T13:00:39.514Z,99468.28
2023-03-06T13:04:01.044Z,99463.16
2023-03-06T13:07:18.803Z,99466.75
2023-03-06T13:10:26.627Z,99460.19
2023-03-06T13:13:41.577Z,99461.03
2023-03-06T13:16:44.499Z,99458.31
2023-03-06T13:19:48.347Z,99455.22
2023-03-06T13:22:51.076Z,99455.97
2023-03-06T13:25:53.571Z,99449.09
2023-03-06T13:28:58.295Z,99441.34
2023-03-06T13:32:00.734Z,99431.16
2023-03-06T13:35:45.999Z,99431.88
2023-03-06T13:38:48.417Z,99415.47
2023-03-06T13:42:00.292Z,99422.31
2023-03-06T13:45:27.056Z,99410.81
2023-03-06T13:48:44.892Z,99406.87
2023-03-06T13:51:53.940Z,99398.09
2023-03-06T13:55:24.192Z,99396.53
2023-03-06T13:58:46.534Z,99392.34
2023-03-06T14:02:23.501Z,99388.78
2023-03-06T14:05:53.514Z,99381.13
2023-03-06T14:08:56.295Z,99375.53
2023-03-06T14:12:07.932Z,99366.88
2023-03-06T14:15:31.628Z,99363.47
2023-03-06T14:18:41.711Z,99362.84
2023-03-06T14:21:56.418Z,99359.53
2023-03-06T14:25:15.229Z,99355.53
2023-03-06T14:28:32.321Z,99359.19
2023-03-06T14:31:41.565Z,99352.16
2023-03-06T14:34:46.772Z,99358.69
2023-03-06T14:37:53.265Z,99340.56
2023-03-06T14:40:56.239Z,99341.94
2023-03-06T14:44:21.736Z,99335.94
2023-03-06T14:47:29.801Z,99337.06
2023-03-06T14:50:36.148Z,99342.50
2023-03-06T14:53:38.836Z,99338.47
2023-03-06T14:56:46.027Z,99331.09
2023-03-06T14:59:59.717Z,99329.91
2023-03-06T15:03:07.670Z,99323.37
2023-03-06T15:06:16.027Z,99329.56
2023-03-06T15:09:31.624Z,99328.88
2023-03-06T15:12:36.414Z,99327.47
2023-03-06T15:15:39.221Z,99322.84
2023-03-06T15:18:56.507Z,99316.81
2023-03-06T15:21:59.408Z,99306.00
2023-03-06T15:25:14.332Z,99316.13
2023-03-06T15:28:31.489Z,99309.81
2023-03-06T15:31:35.427Z,99312.66
2023-03-06T15:34:38.336Z,99296.50
2023-03-06T15:37:40.800Z,99304.41
2023-03-06T15:40:57.674Z,99301.94
2023-03-06T15:44:02.792Z,99301.38
2023-03-06T15:47:09.427Z,99300.00
2023-03-06T15:50:28.851Z,99303.31
2023-03-06T15:53:31.743Z,99300.69
2023-03-06T15:56:38.625Z,99300.84
2023-03-06T15:59:45.088Z,99308.50
2023-03-06T16:02:49.634Z,99299.75
2023-03-06T16:05:52.424Z,99306.56
2023-03-06T16:08:54.992Z,99304.94
2023-03-06T16:11:57.705Z,99308.50
2023-03-06T16:15:21.138Z,99308.72
2023-03-06T16:18:23.892Z,99308.19
2023-03-06T16:21:47.314Z,99306.41
2023-03-06T16:25:05.460Z,99301.19
2023-03-06T16:28:26.964Z,99302.41
2023-03-06T16:31:55.927Z,99292.25
2023-03-06T16:35:35.343Z,99288.47
2023-03-06T16:39:04.625Z,99283.78
2023-03-06T16:42:27.444Z,99271.03
2023-03-06T16:46:08.834Z,99263.25
2023-03-06T16:49:38.175Z,99265.59
2023-03-06T16:53:08.429Z,99258.22
2023-03-06T16:56:25.364Z,99245.78
2023-03-06T16:59:58.374Z,99248.16
2023-03-06T17:03:32.235Z,99229.84
2023-03-06T17:06:46.849Z,99236.47
2023-03-06T17:10:13.278Z,99234.34
2023-03-06T17:13:43.991Z,99232.00
2023-03-06T17:17:16.286Z,99227.53
2023-03-06T17:20:40.871Z,99229.56
2023-03-06T17:24:05.631Z,99223.09
2023-03-06T17:31:24.381Z,99221.03
2023-03-06T17:34:43.573Z,99223.41
2023-03-06T17:38:12.074Z,99216.59
2023-03-06T17:41:38.071Z,99217.28
2023-03-06T17:52:14.298Z,99211.44
2023-03-06T17:55:29.350Z,99202.69
2023-03-06T18:02:43.545Z,99198.44
2023-03-06T18:06:30.075Z,99194.34
2023-03-06T18:09:54.626Z,99201.75
2023-03-06T18:13:41.555Z,99199.28
2023-03-06T18:17:14.763Z,99197.72
2023-03-06T18:24:27.581Z,99193.75
2023-03-06T18:27:53.741Z,99189.75
2023-03-06T18:35:16.465Z,99193.53
2023-03-06T18:38:54.450Z,99193.66
2023-03-06T18:45:33.772Z,99192.34
2023-03-06T18:53:33.250Z,99189.41
2023-03-06T18:57:16.070Z,99179.19
2023-03-06T19:01:03.277Z,99183.22
2023-03-06T19:08:05.681Z,99176.94
2023-03-06T19:11:58.075Z,99171.94
2023-03-06T19:19:34.270Z,99182.91
2023-03-06T19:22:59.458Z,99191.72
2023-03-06T19:30:29.349Z,99180.19
2023-03-06T19:33:59.464Z,99177.69
2023-03-06T19:37:38.832Z,99180.25
2023-03-06T19:53:15.234Z,99174.72
2023-03-06T19:56:40.867Z,99173.56
2023-03-06T20:00:06.631Z,99170.78
2023-03-06T20:07:41.224Z,99170.53
2023-03-06T20:11:20.251Z,99168.19
2023-03-06T20:22:34.502Z,99169.59
2023-03-06T20:30:23.342Z,99168.63
2023-03-06T20:34:01.233Z,99165.78
2023-03-06T20:45:38.385Z,99155.59
2023-03-06T20:53:00.108Z,99149.75
2023-03-06T20:56:48.817Z,99148.72
2023-03-06T21:00:23.527Z,99137.91
2023-03-06T21:03:46.068Z,99125.28
2023-03-06T21:07:26.296Z,99131.34
2023-03-06T21:11:12.541Z,99114.50
2023-03-06T21:14:52.091Z,99106.03
2023-03-06T21:22:19.146Z,99137.28
2023-03-06T21:26:06.526Z,99154.94
2023-03-06T21:29:36.062Z,99169.06
2023-03-06T21:33:15.199Z,99162.25
2023-03-06T21:40:44.920Z,99177.06
2023-03-06T21:56:03.704Z,99199.88
2023-03-06T21:59:52.388Z,99197.75
2023-03-06T22:11:41.990Z,99200.37
2023-03-06T22:15:40.123Z,99200.00
2023-03-06T22:34:24.348Z,99188.38
2023-03-06T23:17:54.269Z,99201.13
2023-03-06T23:21:39.849Z,99211.66
2023-03-06T23:33:08.466Z,99215.31
